Time;durP1;ratioP1;P1;durP2;ratioP2;P2;SDS_P1;SDS_P2;PMS_P1;PMS_P2;Temp;Humidity;BMP_temperature;BMP_pressure;BME280_temperature;BME280_humidity;BME280_pressure;Samples;Min_cycle;Max_cycle;Signal;HPM_P1;HPM_P2
2023/04/11 00:01:51;;;;;;;8.20;4.82;;;;;;;12.77;47.32;99674.50;4484032;31;33775;-60
2023/04/11 00:04:19;;;;;;;11.30;6.60;;;;;;;12.61;47.75;99679.47;4479818;31;34073;-60
2023/04/11 00:06:47;;;;;;;10.48;6.18;;;;;;;12.56;48.21;99670.97;4488896;31;34728;-60
2023/04/11 00:09:15;;;;;;;6.78;3.28;;;;;;;12.65;47.80;99666.63;4489953;31;34897;-60
2023/04/11 00:11:43;;;;;;;12.27;7.03;;;;;;;11.97;49.11;99666.03;4490776;31;33571;-60
2023/04/11 00:14:11;;;;;;;10.15;7.70;;;;;;;12.01;49.52;99667.50;4490048;31;33785;-60
2023/04/11 00:16:40;;;;;;;11.12;5.75;;;;;;;11.98;49.80;99659.72;4492666;31;34110;-61
2023/04/11 00:19:08;;;;;;;4.55;3.72;;;;;;;11.84;50.47;99655.41;4487763;31;33764;-59
2023/04/11 00:21:38;;;;;;;6.62;2.50;;;;;;;12.05;49.80;99655.53;4493656;31;33872;-59
2023/04/11 00:24:07;;;;;;;5.15;3.90;;;;;;;12.27;48.73;99651.94;4489918;31;33461;-59
2023/04/11 00:26:34;;;;;;;13.02;6.18;;;;;;;12.31;48.40;99662.28;4492918;31;34700;-60
2023/04/11 00:29:02;;;;;;;15.45;3.22;;;;;;;12.40;48.04;99659.81;4492558;31;34529;-59
2023/04/11 00:31:29;;;;;;;9.38;4.62;;;;;;;12.44;47.88;99654.03;4487058;31;33722;-60
2023/04/11 00:33:57;;;;;;;5.80;4.72;;;;;;;12.44;47.81;99650.50;4492929;31;35166;-60
2023/04/11 00:36:25;;;;;;;9.70;4.97;;;;;;;12.50;47.81;99650.00;4483017;31;33985;-60
2023/04/11 00:38:57;;;;;;;9.15;5.82;;;;;;;12.42;48.38;99647.09;4487655;31;35293;-61
2023/04/11 00:41:25;;;;;;;6.87;4.72;;;;;;;12.32;48.83;99649.69;4484067;31;34553;-60
2023/04/11 00:43:53;;;;;;;9.70;3.58;;;;;;;12.30;49.11;99654.38;4486976;31;34590;-60
2023/04/11 00:46:20;;;;;;;12.55;3.00;;;;;;;12.35;48.45;99639.56;4493107;31;32789;-60
2023/04/11 00:48:48;;;;;;;8.82;4.43;;;;;;;12.04;49.15;99638.59;4494193;31;33884;-60
2023/04/11 00:51:16;;;;;;;5.72;3.65;;;;;;;12.12;48.98;99636.09;4493771;31;33786;-62
2023/04/11 00:53:47;;;;;;;9.27;6.15;;;;;;;11.98;49.47;99627.53;4489563;31;33281;-61
2023/04/11 00:56:15;;;;;;;9.38;5.85;;;;;;;11.68;50.55;99626.31;4483452;31;32692;-62
2023/04/11 00:58:43;;;;;;;7.12;4.68;;;;;;;11.89;49.84;99632.66;4489453;31;32886;-62
2023/04/11 01:01:10;;;;;;;4.68;2.45;;;;;;;12.13;49.02;99639.62;4481143;31;34533;-61
2023/04/11 01:03:38;;;;;;;12.80;3.35;;;;;;;12.19;48.86;99638.28;4484742;31;32453;-62
2023/04/11 01:06:10;;;;;;;3.37;2.22;;;;;;;12.29;48.53;99648.13;4490367;31;33875;-59
2023/04/11 01:08:40;;;;;;;6.97;5.65;;;;;;;12.24;48.75;99636.09;4483978;31;33986;-60
2023/04/11 01:11:08;;;;;;;7.70;2.90;;;;;;;12.25;48.73;99630.56;4490018;31;34694;-60
2023/04/11 01:13:38;;;;;;;10.05;6.05;;;;;;;12.14;49.14;99627.09;4479878;31;35072;-60
2023/04/11 01:16:07;;;;;;;2.78;2.45;;;;;;;12.02;49.41;99621.75;4484760;31;34358;-60
2023/04/11 01:18:35;;;;;;;5.60;4.18;;;;;;;12.10;49.27;99623.78;4486685;31;33249;-60
2023/04/11 01:21:02;;;;;;;9.07;5.35;;;;;;;12.09;49.21;99625.63;4484140;31;33489;-58
2023/04/11 01:23:30;;;;;;;15.85;7.95;;;;;;;11.92;49.59;99614.59;4477933;31;32967;-59
2023/04/11 01:25:58;;;;;;;15.02;10.65;;;;;;;11.88;49.53;99612.19;4486411;31;33781;-59
2023/04/11 01:28:26;;;;;;;21.75;11.68;;;;;;;11.95;49.25;99614.34;4480840;31;34127;-59
2023/04/11 01:30:54;;;;;;;13.43;7.65;;;;;;;12.08;48.80;99615.03;4479772;31;33656;-58
2023/04/11 01:33:22;;;;;;;14.48;8.48;;;;;;;11.98;48.82;99612.28;4493817;31;33896;-59
2023/04/11 01:35:49;;;;;;;19.90;10.32;;;;;;;12.07;48.39;99616.88;4490921;31;33604;-59
2023/04/11 01:38:17;;;;;;;8.07;5.68;;;;;;;12.01;48.50;99609.34;4484390;31;33798;-60
2023/04/11 01:40:45;;;;;;;8.57;6.90;;;;;;;11.71;49.21;99607.28;4492294;31;32496;-60
2023/04/11 01:43:13;;;;;;;11.52;6.60;;;;;;;11.67;49.26;99605.84;4493987;31;34145;-59
2023/04/11 01:45:41;;;;;;;8.52;4.90;;;;;;;11.70;49.22;99605.59;4490729;31;34089;-59
2023/04/11 01:48:09;;;;;;;6.37;4.55;;;;;;;11.61;49.58;99598.31;4492154;31;33817;-58
2023/04/11 01:50:37;;;;;;;15.27;7.15;;;;;;;11.61;49.63;99600.97;4488082;31;33599;-59
2023/04/11 01:53:06;;;;;;;9.10;6.97;;;;;;;11.49;50.73;99597.47;4492110;31;33276;-58
2023/04/11 01:55:34;;;;;;;6.03;5.43;;;;;;;11.53;50.50;99601.62;4487838;31;33961;-59
2023/04/11 01:58:01;;;;;;;9.05;5.80;;;;;;;11.63;49.73;99599.88;4489721;31;33940;-59
2023/04/11 02:00:29;;;;;;;11.60;6.95;;;;;;;11.64;49.22;99590.00;4493277;31;33014;-59
2023/04/11 02:02:56;;;;;;;9.48;5.97;;;;;;;11.65;49.21;99589.03;4486455;31;34499;-60
2023/04/11 02:05:24;;;;;;;12.88;6.97;;;;;;;11.60;49.18;99597.47;4492594;31;33704;-58
2023/04/11 02:07:55;;;;;;;14.87;4.30;;;;;;;11.58;48.98;99590.50;4486887;31;32432;-59
2023/04/11 02:10:23;;;;;;;5.62;4.07;;;;;;;11.29;49.63;99590.19;4494524;31;33891;-60
2023/04/11 02:12:51;;;;;;;9.75;5.22;;;;;;;11.39;48.77;99591.16;4495841;31;34557;-59
2023/04/11 02:15:18;;;;;;;4.20;3.70;;;;;;;11.25;48.97;99589.59;4494231;31;32333;-59
2023/04/11 02:17:46;;;;;;;6.28;4.50;;;;;;;11.48;48.63;99584.19;4494771;31;33725;-59
2023/04/11 02:20:14;;;;;;;11.07;4.82;;;;;;;11.66;47.88;99583.56;4495465;31;35283;-60
2023/04/11 02:22:41;;;;;;;6.82;4.50;;;;;;;11.46;48.87;99586.12;4497052;31;34609;-59
2023/04/11 02:25:09;;;;;;;7.50;4.87;;;;;;;11.56;48.93;99582.63;4487149;31;33376;-60
2023/04/11 02:27:36;;;;;;;9.75;5.93;;;;;;;11.42;49.32;99590.91;4486633;31;34097;-60
2023/04/11 02:30:05;;;;;;;6.78;3.35;;;;;;;11.73;48.12;99586.59;4484514;31;34537;-59
2023/04/11 02:32:33;;;;;;;10.43;4.90;;;;;;;11.36;48.86;99584.22;4494400;31;33406;-58
2023/04/11 02:35:01;;;;;;;7.40;3.37;;;;;;;11.33;49.10;99578.25;4496742;31;33842;-59
2023/04/11 02:37:28;;;;;;;19.23;6.25;;;;;;;11.13;49.41;99579.84;4495375;31;35692;-59
2023/04/11 02:39:57;;;;;;;6.60;4.75;;;;;;;10.68;50.75;99563.75;4488403;31;34179;-59
2023/04/11 02:42:24;;;;;;;9.35;3.25;;;;;;;11.01;50.04;99567.41;4496877;31;34615;-60
2023/04/11 02:44:54;;;;;;;10.10;3.65;;;;;;;11.17;49.27;99567.91;4496656;31;34317;-59
2023/04/11 02:47:24;;;;;;;7.22;5.07;;;;;;;11.23;49.08;99567.41;4491667;31;34897;-58
2023/04/11 02:49:53;;;;;;;15.23;4.15;;;;;;;10.85;49.85;99562.41;4487791;31;33911;-60
2023/04/11 02:52:22;;;;;;;9.48;6.80;;;;;;;10.98;49.63;99564.97;4494929;31;31973;-60
2023/04/11 02:54:50;;;;;;;10.05;8.10;;;;;;;10.79;50.44;99570.97;4484572;31;33773;-59
2023/04/11 02:57:17;;;;;;;3.75;2.80;;;;;;;10.60;51.36;99569.72;4491604;31;34897;-59
2023/04/11 02:59:45;;;;;;;4.93;4.00;;;;;;;10.68;51.43;99571.78;4492057;31;32136;-59
2023/04/11 03:02:14;;;;;;;9.93;5.53;;;;;;;10.79;51.68;99579.84;4497090;31;33303;-59
2023/04/11 03:04:43;;;;;;;9.57;6.40;;;;;;;11.01;51.23;99579.00;4494963;31;34761;-59
2023/04/11 03:07:11;;;;;;;8.15;5.37;;;;;;;11.11;50.73;99571.09;4489072;31;33749;-59
2023/04/11 03:09:39;;;;;;;6.60;4.37;;;;;;;10.79;51.09;99574.50;4487186;31;34862;-59
2023/04/11 03:12:07;;;;;;;9.18;5.30;;;;;;;10.28;52.54;99579.38;4495691;31;33366;-58
2023/04/11 03:14:35;;;;;;;9.55;4.90;;;;;;;10.31;52.42;99566.59;4495847;31;34951;-58
2023/04/11 03:17:03;;;;;;;6.03;3.78;;;;;;;10.18;52.68;99569.34;4494339;31;32814;-58
2023/04/11 03:19:31;;;;;;;12.65;6.00;;;;;;;10.41;51.83;99575.63;4483397;31;34588;-61
2023/04/11 03:22:00;;;;;;;8.55;3.67;;;;;;;10.54;51.30;99577.38;4485903;31;33224;-58
2023/04/11 03:24:27;;;;;;;6.12;4.00;;;;;;;10.47;51.25;99568.97;4494472;31;34690;-58
2023/04/11 03:26:56;;;;;;;4.90;3.35;;;;;;;10.46;51.30;99575.25;4493282;31;33786;-58
2023/04/11 03:29:24;;;;;;;6.12;4.15;;;;;;;10.20;51.82;99572.72;4483882;31;33808;-60
2023/04/11 03:31:52;;;;;;;5.53;3.78;;;;;;;10.27;51.63;99567.78;4495715;31;32926;-59
2023/04/11 03:34:20;;;;;;;4.40;3.90;;;;;;;10.18;52.52;99569.34;4495320;31;32448;-60
2023/04/11 03:36:49;;;;;;;8.70;3.42;;;;;;;10.32;52.08;99562.09;4486855;31;33881;-60
2023/04/11 03:39:18;;;;;;;5.25;4.20;;;;;;;10.43;51.87;99560.31;4482225;31;34108;-59
2023/04/11 03:41:47;;;;;;;10.57;6.72;;;;;;;10.55;51.43;99557.66;4489178;31;32471;-60
2023/04/11 03:44:14;;;;;;;7.43;5.35;;;;;;;10.37;52.26;99563.47;4484600;31;34460;-60
2023/04/11 03:46:43;;;;;;;5.95;4.20;;;;;;;9.98;53.66;99554.81;4484384;31;35140;-61
2023/04/11 03:49:10;;;;;;;10.15;4.35;;;;;;;9.97;53.90;99561.09;4488332;31;34851;-59
2023/04/11 03:51:38;;;;;;;9.13;5.75;;;;;;;9.99;53.58;99558.31;4496680;31;33238;-60
2023/04/11 03:54:06;;;;;;;4.70;3.95;;;;;;;9.95;53.67;99557.72;4495447;31;34053;-58
2023/04/11 03:56:33;;;;;;;5.03;3.20;;;;;;;9.62;54.48;99554.84;4484534;31;34278;-60
2023/04/11 03:59:01;;;;;;;4.78;2.97;;;;;;;9.82;53.74;99548.88;4485410;31;33620;-59
2023/04/11 04:01:31;;;;;;;9.45;3.83;;;;;;;9.65;53.72;99544.78;4486063;31;33926;-59
2023/04/11 04:03:59;;;;;;;8.23;6.25;;;;;;;10.10;52.67;99547.66;4493167;31;34296;-60
2023/04/11 04:06:28;;;;;;;7.95;4.00;;;;;;;9.37;55.22;99545.97;4490943;31;33300;-61
2023/04/11 04:08:58;;;;;;;5.47;3.37;;;;;;;10.06;53.45;99548.00;4483184;31;33874;-60
2023/04/11 04:11:28;;;;;;;5.07;4.35;;;;;;;10.25;53.60;99542.97;4492722;31;32164;-59
2023/04/11 04:13:56;;;;;;;4.32;3.78;;;;;;;10.49;52.63;99545.59;4483255;31;33627;-59
2023/04/11 04:16:24;;;;;;;3.00;2.70;;;;;;;10.62;52.63;99540.97;4480999;31;35158;-61
2023/04/11 04:18:52;;;;;;;3.70;2.85;;;;;;;10.45;53.24;99538.78;4485763;31;33845;-61
2023/04/11 04:21:20;;;;;;;5.97;3.83;;;;;;;10.21;53.75;99538.84;4492130;31;33444;-60
2023/04/11 04:23:49;;;;;;;4.40;3.25;;;;;;;10.03;54.14;99541.06;4492460;31;34001;-61
2023/04/11 04:26:23;;;;;;;6.07;3.22;;;;;;;9.81;54.80;99539.16;4490804;31;34803;-60
2023/04/11 04:28:52;;;;;;;5.37;2.95;;;;;;;9.76;55.14;99547.53;4491070;31;34748;-60
2023/04/11 04:31:24;;;;;;;4.28;3.70;;;;;;;9.50;56.14;99541.44;4489417;31;33623;-60
2023/04/11 04:33:57;;;;;;;8.65;4.50;;;;;;;9.93;55.57;99548.09;4491025;31;33787;-60
2023/04/11 04:36:25;;;;;;;2.97;2.50;;;;;;;10.22;54.62;99549.41;4491056;31;34326;-61
2023/04/11 04:38:56;;;;;;;6.00;4.95;;;;;;;10.35;53.46;99538.66;4492032;31;33968;-59
2023/04/11 04:41:23;;;;;;;4.43;2.08;;;;;;;10.59;52.72;99535.03;4488498;31;34738;-58
2023/04/11 04:43:56;;;;;;;7.87;2.62;;;;;;;10.66;52.75;99534.44;4496339;31;33773;-59
2023/04/11 04:46:25;;;;;;;6.65;4.68;;;;;;;10.75;52.75;99535.53;4485348;31;35312;-58
2023/04/11 04:48:53;;;;;;;6.65;4.75;;;;;;;10.87;52.79;99533.72;4480869;31;34394;-58
2023/04/11 04:51:21;;;;;;;6.75;4.68;;;;;;;10.99;52.49;99529.22;4492086;31;33032;-59
2023/04/11 04:53:49;;;;;;;4.15;3.22;;;;;;;11.05;52.85;99540.28;4494772;31;33492;-59
2023/04/11 04:56:17;;;;;;;8.07;5.12;;;;;;;11.26;51.90;99532.34;4487739;31;32896;-59
2023/04/11 04:58:46;;;;;;;7.03;3.22;;;;;;;11.49;51.36;99540.34;4492453;31;33700;-59
2023/04/11 05:01:15;;;;;;;5.25;3.83;;;;;;;11.63;50.86;99526.66;4481724;31;34589;-59
2023/04/11 05:03:45;;;;;;;5.53;3.10;;;;;;;11.67;51.16;99533.47;4479057;31;34496;-59
2023/04/11 05:06:13;;;;;;;8.55;4.40;;;;;;;11.80;51.21;99531.47;4483981;31;34401;-59
2023/04/11 05:08:42;;;;;;;4.40;3.42;;;;;;;11.99;50.89;99521.91;4493884;31;33905;-58
2023/04/11 05:11:10;;;;;;;6.90;4.82;;;;;;;12.15;50.81;99522.31;4483967;31;33109;-59
2023/04/11 05:13:37;;;;;;;5.28;3.62;;;;;;;12.41;50.47;99529.97;4482306;32;34929;-59
2023/04/11 05:16:06;;;;;;;9.90;5.45;;;;;;;12.77;49.72;99524.09;4487280;31;33786;-58
2023/04/11 05:18:34;;;;;;;10.70;6.43;;;;;;;13.30;48.74;99527.59;4485438;31;34146;-59
2023/04/11 05:21:01;;;;;;;6.30;3.55;;;;;;;13.61;48.29;99514.91;4488681;31;33534;-59
2023/04/11 05:23:29;;;;;;;8.77;4.55;;;;;;;13.88;47.89;99511.56;4496481;31;32663;-59
2023/04/11 05:26:00;;;;;;;8.77;4.10;;;;;;;14.04;47.61;99516.38;4484961;31;33939;-59
2023/04/11 05:28:30;;;;;;;11.70;4.50;;;;;;;14.36;46.96;99511.50;4487839;31;34030;-59
2023/04/11 05:30:58;;;;;;;12.30;6.35;;;;;;;14.56;46.77;99515.03;4489116;31;33242;-59
2023/04/11 05:33:27;;;;;;;5.15;3.35;;;;;;;14.61;46.44;99517.31;4489142;31;33772;-60
2023/04/11 05:35:56;;;;;;;5.47;3.53;;;;;;;14.82;46.06;99519.78;4490647;31;35398;-60
2023/04/11 05:38:23;;;;;;;8.40;5.37;;;;;;;14.84;45.85;99524.03;4491264;31;33430;-60
2023/04/11 05:40:51;;;;;;;8.18;5.50;;;;;;;14.70;46.39;99518.25;4493457;31;33427;-60
2023/04/11 05:43:18;;;;;;;6.43;3.70;;;;;;;14.89;45.97;99513.66;4498575;31;35096;-60
2023/04/11 05:45:46;;;;;;;7.18;4.45;;;;;;;15.05;46.10;99512.16;4495428;31;33765;-60
2023/04/11 05:48:17;;;;;;;9.02;5.18;;;;;;;15.18;45.83;99511.81;4496842;31;33796;-60
2023/04/11 05:50:45;;;;;;;5.65;4.00;;;;;;;15.39;45.39;99504.31;4495642;31;32035;-60
2023/04/11 05:53:12;;;;;;;6.28;3.80;;;;;;;15.85;44.31;99499.75;4498906;31;33926;-60
2023/04/11 05:55:40;;;;;;;7.18;3.58;;;;;;;15.91;44.32;99482.94;4500198;31;34009;-60
2023/04/11 05:58:08;;;;;;;11.07;6.62;;;;;;;15.93;44.33;99489.06;4500964;31;32398;-60
2023/04/11 06:00:37;;;;;;;9.93;5.80;;;;;;;16.06;44.12;99499.44;4489640;31;33118;-61
2023/04/11 06:03:06;;;;;;;8.20;5.68;;;;;;;16.06;43.85;99497.59;4484457;31;33840;-61
2023/04/11 06:05:35;;;;;;;17.23;8.65;;;;;;;16.00;44.09;99492.81;4490082;31;33647;-60
2023/04/11 06:08:06;;;;;;;17.00;10.52;;;;;;;15.88;44.12;99485.97;4489545;31;35215;-60
2023/04/11 06:10:34;;;;;;;11.82;7.55;;;;;;;15.86;44.39;99487.09;4500125;31;33611;-61
2023/04/11 06:13:02;;;;;;;15.77;8.63;;;;;;;15.69;44.46;99491.50;4487583;31;34759;-61
2023/04/11 06:15:29;;;;;;;15.98;8.55;;;;;;;15.41;45.10;99488.84;4493508;31;33662;-61
2023/04/11 06:17:57;;;;;;;15.60;7.70;;;;;;;15.38;45.29;99484.59;4493278;31;32629;-61
2023/04/11 06:20:24;;;;;;;12.48;6.85;;;;;;;15.49;45.21;99488.91;4484351;31;34639;-59
2023/04/11 06:22:52;;;;;;;12.70;8.20;;;;;;;15.55;45.42;99482.91;4496304;31;34699;-60
2023/04/11 06:25:20;;;;;;;10.82;5.25;;;;;;;15.49;45.64;99480.81;4493869;31;35171;-60
2023/04/11 06:27:48;;;;;;;12.50;6.75;;;;;;;15.29;46.07;99479.28;4489003;31;33383;-60
2023/04/11 06:30:16;;;;;;;10.10;6.25;;;;;;;15.45;45.84;99474.06;4495373;31;34497;-61
2023/04/11 06:32:44;;;;;;;12.02;7.05;;;;;;;15.37;45.53;99473.94;4487231;31;33637;-60
2023/04/11 06:35:11;;;;;;;13.60;8.32;;;;;;;15.42;45.66;99476.22;4497271;31;33718;-61
2023/04/11 06:37:41;;;;;;;13.20;8.85;;;;;;;15.69;44.90;99467.22;4487357;31;33599;-61
2023/04/11 06:40:09;;;;;;;13.45;6.97;;;;;;;15.64;45.07;99474.91;4498227;31;34275;-60
2023/04/11 06:42:37;;;;;;;12.80;6.97;;;;;;;15.88;45.06;99467.06;4498610;31;32714;-60
2023/04/11 06:45:05;;;;;;;11.38;5.80;;;;;;;16.13;45.01;99470.81;4498893;31;34086;-60
2023/04/11 06:47:33;;;;;;;8.60;5.80;;;;;;;16.25;45.43;99477.66;4495550;31;32714;-61
2023/04/11 06:50:00;;;;;;;15.57;6.60;;;;;;;15.92;46.40;99476.56;4496696;31;33219;-60
2023/04/11 06:52:27;;;;;;;11.20;7.93;;;;;;;16.38;45.16;99476.41;4484253;31;35078;-61
2023/04/11 06:54:55;;;;;;;14.05;8.02;;;;;;;16.39;45.01;99476.22;4489314;31;33754;-60
2023/04/11 06:57:22;;;;;;;23.83;9.38;;;;;;;15.94;46.35;99462.91;4490178;31;32797;-60
2023/04/11 06:59:50;;;;;;;9.13;6.30;;;;;;;15.93;46.54;99458.53;4497115;31;33610;-60
2023/04/11 07:02:17;;;;;;;21.00;9.23;;;;;;;16.15;46.15;99459.87;4497843;31;34905;-61
2023/04/11 07:04:45;;;;;;;13.60;7.57;;;;;;;16.32;46.12;99464.38;4484453;31;33886;-61
2023/04/11 07:07:13;;;;;;;12.68;7.47;;;;;;;15.55;47.56;99461.34;4482434;31;34955;-61
2023/04/11 07:09:42;;;;;;;14.60;9.27;;;;;;;16.27;46.72;99464.84;4490770;31;31783;-59
2023/04/11 07:12:09;;;;;;;17.58;9.20;;;;;;;16.60;45.70;99450.72;4498063;31;33955;-61
2023/04/11 07:14:37;;;;;;;8.68;5.32;;;;;;;16.70;45.80;99443.34;4484924;31;33935;-60
2023/04/11 07:17:04;;;;;;;15.13;7.65;;;;;;;16.42;45.67;99438.09;4490813;31;33757;-61
2023/04/11 07:19:32;;;;;;;16.55;8.20;;;;;;;16.46;46.17;99439.47;4493642;31;33206;-61
2023/04/11 07:21:59;;;;;;;12.57;7.53;;;;;;;17.08;44.92;99442.00;4487676;31;33726;-61
2023/04/11 07:24:29;;;;;;;13.93;5.70;;;;;;;17.03;44.43;99438.09;4492219;31;33673;-61
2023/04/11 07:27:00;;;;;;;9.82;5.40;;;;;;;16.11;44.66;99444.97;4495977;31;33876;-60
2023/04/11 07:29:28;;;;;;;9.50;4.87;;;;;;;15.86;44.30;99446.63;4484876;31;33246;-61
2023/04/11 07:31:55;;;;;;;9.32;6.65;;;;;;;15.60;45.20;99444.69;4493289;31;34788;-61
2023/04/11 07:34:23;;;;;;;10.60;6.93;;;;;;;15.60;46.16;99445.56;4497765;31;32434;-60
2023/04/11 07:36:51;;;;;;;10.35;6.18;;;;;;;15.98;45.02;99440.81;4498030;31;33614;-61
2023/04/11 07:39:18;;;;;;;10.55;6.68;;;;;;;16.40;44.59;99450.06;4499624;31;34142;-60
2023/04/11 07:41:46;;;;;;;12.93;8.15;;;;;;;16.23;44.86;99451.81;4493430;31;33426;-61
2023/04/11 07:44:13;;;;;;;9.65;7.10;;;;;;;15.95;45.34;99451.94;4488110;31;34999;-59
2023/04/11 07:46:41;;;;;;;12.77;7.12;;;;;;;15.97;46.17;99458.03;4489332;31;34114;-60
2023/04/11 07:49:08;;;;;;;15.75;7.85;;;;;;;16.46;45.47;99447.56;4494319;31;33500;-60
2023/04/11 07:51:36;;;;;;;12.35;8.35;;;;;;;15.87;46.33;99445.66;4494327;31;33724;-61
2023/04/11 07:54:03;;;;;;;10.70;6.22;;;;;;;16.52;44.75;99441.53;4498760;31;33711;-61
2023/04/11 07:56:31;;;;;;;10.48;6.18;;;;;;;16.02;45.97;99441.38;4498435;31;35179;-61
2023/04/11 07:59:00;;;;;;;15.57;8.77;;;;;;;16.32;45.38;99445.47;4499984;31;33325;-62
2023/04/11 08:01:27;;;;;;;13.10;7.90;;;;;;;16.64;44.95;99433.16;4492239;31;33951;-61
2023/04/11 08:03:55;;;;;;;17.58;6.93;;;;;;;16.50;44.22;99434.59;4486193;31;34636;-61
2023/04/11 08:06:24;;;;;;;13.48;7.15;;;;;;;15.88;45.68;99441.94;4493958;31;35031;-62
2023/04/11 08:08:51;;;;;;;7.15;5.75;;;;;;;16.73;43.95;99424.94;4491086;31;32240;-61
2023/04/11 08:11:19;;;;;;;11.82;6.65;;;;;;;16.30;44.73;99431.28;4486885;31;34889;-60
2023/04/11 08:13:46;;;;;;;13.82;8.60;;;;;;;16.40;44.74;99425.75;4498596;31;33876;-60
2023/04/11 08:16:14;;;;;;;15.23;8.02;;;;;;;16.92;44.01;99415.75;4494996;31;33426;-61
2023/04/11 08:18:44;;;;;;;11.85;7.07;;;;;;;16.49;44.69;99409.44;4495640;31;33503;-61
2023/04/11 08:21:12;;;;;;;16.40;8.15;;;;;;;15.73;46.10;99418.22;4492529;31;34537;-62
2023/04/11 08:23:40;;;;;;;16.58;9.70;;;;;;;16.51;44.71;99420.09;4486937;31;33848;-60
2023/04/11 08:26:20;;;;;;;13.55;8.23;;;;;;;16.42;45.18;99404.84;4488245;31;34859;-62
2023/04/11 08:28:48;;;;;;;13.07;7.50;;;;;;;15.75;46.67;99407.25;4493448;31;34176;-62
2023/04/11 08:31:16;;;;;;;20.52;10.35;;;;;;;16.43;45.74;99393.03;4485989;31;34856;-62
2023/04/11 08:33:44;;;;;;;14.98;8.25;;;;;;;16.07;45.92;99385.91;4490066;31;35288;-62
2023/04/11 08:36:12;;;;;;;16.77;9.52;;;;;;;15.70;47.28;99393.41;4492044;31;32989;-60
2023/04/11 08:38:39;;;;;;;11.60;7.12;;;;;;;15.72;47.47;99383.28;4485885;31;33747;-62
2023/04/11 08:41:07;;;;;;;14.00;8.65;;;;;;;15.50;47.14;99374.63;4491985;31;32586;-62
2023/04/11 08:43:35;;;;;;;14.98;7.80;;;;;;;15.65;47.44;99376.78;4494439;31;34127;-61
2023/04/11 08:46:03;;;;;;;13.45;7.62;;;;;;;16.13;46.17;99373.63;4485781;31;33807;-60
2023/04/11 08:48:31;;;;;;;16.15;9.32;;;;;;;16.17;46.21;99366.88;4498359;31;33576;-60
2023/04/11 08:50:59;;;;;;;16.45;9.75;;;;;;;15.25;48.14;99365.50;4498590;31;33701;-59
2023/04/11 08:53:28;;;;;;;16.33;7.62;;;;;;;15.53;47.17;99360.00;4493714;31;32901;-62
2023/04/11 08:55:57;;;;;;;13.77;8.93;;;;;;;15.94;46.29;99349.53;4488593;31;33901;-63
2023/04/11 08:58:25;;;;;;;14.23;9.20;;;;;;;15.68;47.65;99347.69;4494561;31;34226;-63
2023/04/11 09:00:52;;;;;;;21.92;10.55;;;;;;;15.27;48.24;99359.94;4491318;31;33863;-63
2023/04/11 09:03:20;;;;;;;19.20;10.60;;;;;;;15.51;48.57;99349.38;4490970;31;34095;-62
2023/04/11 09:05:48;;;;;;;16.15;10.52;;;;;;;15.05;49.76;99351.28;4485538;32;32701;-62
2023/04/11 09:08:16;;;;;;;16.15;8.57;;;;;;;15.39;49.62;99345.22;4492419;31;33937;-62
2023/04/11 09:10:44;;;;;;;15.63;10.48;;;;;;;16.48;47.42;99350.19;4485414;31;32584;-61
2023/04/11 09:13:25;;;;;;;18.75;9.82;;;;;;;15.28;49.54;99346.31;4485586;31;34094;-63
2023/04/11 09:16:08;;;;;;;12.77;7.47;;;;;;;15.80;48.88;99341.03;4501478;31;35063;-61
2023/04/11 09:18:45;;;;;;;9.52;7.00;;;;;;;16.42;47.36;99340.88;4497352;31;33374;-59
2023/04/11 09:21:14;;;;;;;12.57;7.47;;;;;;;16.20;47.66;99331.47;4499256;31;33741;-60
2023/04/11 09:23:42;;;;;;;12.57;8.82;;;;;;;16.33;46.43;99328.31;4489785;31;35519;-61
2023/04/11 09:26:11;;;;;;;15.77;11.15;;;;;;;16.70;46.16;99319.03;4498691;31;34524;-61
2023/04/11 09:28:43;;;;;;;16.58;10.65;;;;;;;16.51;46.86;99325.56;4499471;31;34019;-61
2023/04/11 09:31:11;;;;;;;14.38;10.27;;;;;;;17.50;44.90;99310.38;4485735;31;33770;-61
2023/04/11 09:33:52;;;;;;;11.48;7.18;;;;;;;17.12;44.51;99307.31;4494520;31;34209;-61
2023/04/11 09:36:21;;;;;;;18.45;7.90;;;;;;;17.13;44.12;99306.31;4491663;31;33800;-62
2023/04/11 09:38:50;;;;;;;17.30;10.25;;;;;;;16.50;45.13;99321.13;4492693;31;33280;-60
2023/04/11 09:41:31;;;;;;;17.20;9.45;;;;;;;16.91;44.91;99316.72;4495850;31;33673;-60
2023/04/11 09:43:59;;;;;;;19.23;9.23;;;;;;;17.01;45.01;99316.59;4493157;31;32911;-60
2023/04/11 09:46:27;;;;;;;10.88;7.35;;;;;;;17.21;43.94;99317.13;4493611;31;33784;-61
2023/04/11 09:48:55;;;;;;;14.93;8.45;;;;;;;16.39;44.05;99306.06;4498035;31;33241;-60
2023/04/11 09:51:23;;;;;;;14.43;7.47;;;;;;;17.02;43.62;99293.97;4492689;31;33787;-63
2023/04/11 09:54:03;;;;;;;13.95;9.05;;;;;;;17.14;42.95;99289.94;4494094;31;35182;-62
2023/04/11 09:56:33;;;;;;;16.87;8.07;;;;;;;18.37;41.59;99296.00;4501208;31;34679;-62
2023/04/11 09:59:02;;;;;;;14.75;9.23;;;;;;;18.61;40.58;99276.06;4492479;31;33317;-64
2023/04/11 10:01:31;;;;;;;17.83;7.82;;;;;;;18.22;41.30;99286.91;4490457;31;33381;-61
2023/04/11 10:03:59;;;;;;;13.20;6.80;;;;;;;18.69;40.74;99283.31;4493064;31;33983;-62
2023/04/11 10:06:42;;;;;;;12.57;8.18;;;;;;;18.87;39.43;99282.22;4492801;31;33669;-60
2023/04/11 10:09:11;;;;;;;19.48;11.50;;;;;;;18.96;39.31;99275.72;4485359;32;33379;-62
2023/04/11 10:11:41;;;;;;;23.10;12.18;;;;;;;19.27;39.67;99278.38;4491911;31;33764;-60
2023/04/11 10:14:37;;;;;;;13.50;10.32;;;;;;;18.26;41.34;99277.41;4492631;31;35562;-62
2023/04/11 10:17:15;;;;;;;19.55;12.25;;;;;;;19.63;39.67;99266.84;4497541;31;35064;-63
2023/04/11 10:19:50;;;;;;;16.80;10.73;;;;;;;19.74;38.39;99258.28;4494691;31;34295;-60
2023/04/11 10:22:57;;;;;;;16.45;12.07;;;;;;;19.84;38.99;99250.72;4492871;31;32280;-60
2023/04/11 10:25:25;;;;;;;13.65;8.25;;;;;;;19.15;39.08;99253.53;4432342;32;33656;-62
2023/04/11 10:27:59;;;;;;;15.82;10.95;;;;;;;19.37;38.98;99240.13;4485288;31;34030;-63
2023/04/11 10:30:39;;;;;;;15.63;10.55;;;;;;;19.37;38.33;99240.13;4489563;31;32959;-60
2023/04/11 10:33:17;;;;;;;16.45;9.38;;;;;;;19.58;39.06;99234.81;4491813;31;33724;-62
2023/04/11 10:36:11;;;;;;;19.35;10.52;;;;;;;17.92;41.06;99226.28;4488127;31;32794;-60
2023/04/11 10:38:38;;;;;;;20.75;12.45;;;;;;;18.95;39.83;99231.50;4497029;31;33792;-60
2023/04/11 10:41:21;;;;;;;15.60;9.57;;;;;;;18.08;41.65;99236.19;4495941;31;32393;-60
2023/04/11 10:43:49;;;;;;;14.32;9.95;;;;;;;18.71;40.20;99226.19;4486609;31;35346;-60
2023/04/11 10:46:24;;;;;;;18.77;11.30;;;;;;;19.83;37.60;99211.00;4487217;31;33560;-62
2023/04/11 10:48:58;;;;;;;14.50;9.30;;;;;;;19.24;38.60;99214.47;4495469;31;34733;-60
2023/04/11 10:51:28;;;;;;;14.27;8.73;;;;;;;19.71;38.11;99207.94;4486790;31;33361;-62
2023/04/11 10:53:58;;;;;;;16.73;10.10;;;;;;;20.30;36.49;99206.19;4488800;31;35529;-61
2023/04/11 10:56:44;;;;;;;17.37;13.25;;;;;;;19.84;37.14;99206.41;4491983;31;33792;-62
2023/04/11 10:59:30;;;;;;;14.80;10.68;;;;;;;20.47;36.10;99194.06;4492019;31;33577;-61
2023/04/11 11:02:00;;;;;;;17.62;10.10;;;;;;;19.73;35.17;99195.00;4490407;31;34303;-61
2023/04/11 11:04:36;;;;;;;14.98;10.32;;;;;;;19.20;36.63;99191.44;4497069;31;33402;-60
2023/04/11 11:07:06;;;;;;;19.02;12.93;;;;;;;19.40;36.43;99196.34;4491778;31;35311;-60
2023/04/11 11:09:34;;;;;;;16.25;8.55;;;;;;;19.96;36.40;99186.75;4491811;31;33836;-60
2023/04/11 11:12:14;;;;;;;10.88;6.60;;;;;;;20.29;35.15;99177.31;4488491;31;33609;-61
2023/04/11 11:14:44;;;;;;;11.55;7.87;;;;;;;20.78;35.19;99169.31;4497026;31;33630;-60
2023/04/11 11:17:12;;;;;;;10.15;6.57;;;;;;;20.94;34.70;99169.06;4487404;31;33788;-60
2023/04/11 11:19:44;;;;;;;11.45;7.80;;;;;;;20.41;33.78;99167.63;4485856;31;33903;-61
2023/04/11 11:22:15;;;;;;;13.15;10.30;;;;;;;20.04;34.88;99165.97;4489160;31;34420;-59
2023/04/11 11:24:43;;;;;;;12.50;6.90;;;;;;;19.74;34.54;99161.41;4489877;31;34329;-60
2023/04/11 11:27:23;;;;;;;13.85;8.38;;;;;;;19.49;35.80;99168.09;4492075;31;33919;-61
2023/04/11 11:29:51;;;;;;;14.90;9.50;;;;;;;20.09;35.11;99148.03;4497623;31;33719;-61
2023/04/11 11:32:26;;;;;;;17.73;11.68;;;;;;;20.51;34.74;99146.44;4496423;31;33486;-60
2023/04/11 11:34:56;;;;;;;13.52;7.62;;;;;;;21.21;33.58;99135.78;4486927;31;32437;-60
2023/04/11 11:37:24;;;;;;;13.35;7.43;;;;;;;21.12;33.10;99135.06;4485922;31;33707;-60
2023/04/11 11:39:52;;;;;;;12.32;7.85;;;;;;;21.25;33.43;99134.34;4492635;31;33652;-62